createdAt,value
2018-05-01T00:00:55.640Z,58.10
2018-05-01T00:01:55.606Z,58.58
2018-05-01T00:02:55.579Z,58.67
2018-05-01T00:03:55.558Z,59.91
2018-05-01T00:04:55.535Z,60.16
2018-05-01T00:05:55.499Z,60.06
2018-05-01T00:06:55.475Z,59.59
2018-05-01T00:07:55.452Z,59.49
2018-05-01T00:08:55.419Z,59.02
2018-05-01T00:09:55.399Z,58.83
2018-05-01T00:10:55.372Z,58.83
2018-05-01T00:11:55.344Z,58.92
2018-05-01T00:12:55.318Z,58.07
2018-05-01T00:13:55.288Z,57.98
2018-05-01T00:14:55.256Z,58.07
2018-05-01T00:15:55.239Z,59.21
2018-05-01T00:16:55.212Z,58.73
2018-05-01T00:17:55.178Z,58.73
2018-05-01T00:18:55.148Z,58.64
2018-05-01T00:19:55.132Z,57.88
2018-05-01T00:20:55.096Z,57.69
2018-05-01T00:21:55.073Z,58.54
2018-05-01T00:22:55.050Z,59.02
2018-05-01T00:23:55.014Z,58.54
2018-05-01T00:24:54.997Z,58.26
2018-05-01T00:25:54.958Z,58.54
2018-05-01T00:26:54.941Z,58.83
2018-05-01T00:27:54.910Z,57.69
2018-05-01T00:28:54.880Z,58.07
2018-05-01T00:29:54.860Z,57.69
2018-05-01T00:30:54.824Z,57.88
2018-05-01T00:31:54.804Z,57.59
2018-05-01T00:32:54.780Z,58.73
2018-05-01T00:33:54.748Z,58.17
2018-05-01T00:34:54.727Z,57.98
2018-05-01T00:35:54.694Z,57.79
2018-05-01T00:36:54.667Z,58.45
2018-05-01T00:37:54.638Z,58.07
2018-05-01T00:38:54.614Z,57.59
2018-05-01T00:39:54.591Z,57.69
2018-05-01T00:40:54.557Z,58.07
2018-05-01T00:41:54.536Z,58.92
2018-05-01T00:42:54.512Z,58.92
2018-05-01T00:43:54.478Z,57.40
2018-05-01T00:44:54.458Z,58.45
2018-05-01T00:45:54.420Z,57.79
2018-05-01T00:46:54.394Z,57.31
2018-05-01T00:47:54.375Z,58.45
2018-05-01T00:48:54.341Z,57.69
2018-05-01T00:49:54.321Z,58.07
2018-05-01T00:50:54.292Z,58.07
2018-05-01T00:51:54.268Z,57.59
2018-05-01T00:52:54.244Z,57.59
2018-05-01T00:53:54.211Z,57.69
2018-05-01T00:54:54.181Z,57.21
2018-05-01T00:55:54.159Z,56.84
2018-05-01T00:56:54.129Z,58.07
2018-05-01T00:57:54.101Z,59.02
2018-05-01T00:58:54.078Z,58.64
2018-05-01T00:59:54.058Z,57.79
2018-05-01T01:00:54.023Z,58.73
2018-05-01T01:01:53.994Z,58.64
2018-05-01T01:02:53.967Z,58.17
2018-05-01T01:03:53.942Z,58.64
2018-05-01T01:04:53.912Z,57.88
2018-05-01T01:05:53.891Z,57.31
2018-05-01T01:06:53.863Z,56.55
2018-05-01T01:07:53.833Z,57.03
2018-05-01T01:08:53.810Z,56.74
2018-05-01T01:09:53.773Z,56.65
2018-05-01T01:10:53.745Z,56.36
2018-05-01T01:11:53.730Z,56.17
2018-05-01T01:12:53.700Z,56.08
2018-05-01T01:13:53.676Z,56.74
2018-05-01T01:14:53.647Z,56.74
2018-05-01T01:15:53.612Z,57.12
2018-05-01T01:16:53.589Z,56.55
2018-05-01T01:17:53.566Z,56.74
2018-05-01T01:18:53.531Z,56.55
2018-05-01T01:19:53.513Z,57.79
2018-05-01T01:20:53.484Z,57.03
2018-05-01T01:21:53.458Z,57.79
2018-05-01T01:22:53.432Z,57.31
2018-05-01T01:23:53.410Z,57.40
2018-05-01T01:24:53.372Z,58.26
2018-05-01T01:25:53.351Z,57.69
2018-05-01T01:26:53.323Z,57.12
2018-05-01T01:27:53.295Z,57.21
2018-05-01T01:28:53.271Z,56.93
2018-05-01T01:29:53.242Z,56.36
2018-05-01T01:30:53.211Z,56.17
2018-05-01T01:31:53.185Z,56.36
2018-05-01T01:32:53.160Z,56.46
2018-05-01T01:33:53.137Z,56.74
2018-05-01T01:34:53.102Z,56.74
2018-05-01T01:35:53.081Z,56.55
2018-05-01T01:36:53.049Z,56.84
2018-05-01T01:37:53.028Z,56.46
2018-05-01T01:38:53.004Z,56.46
2018-05-01T01:39:52.965Z,56.36
2018-05-01T01:40:52.941Z,56.84
2018-05-01T01:41:52.913Z,56.65
2018-05-01T01:42:52.892Z,56.65
2018-05-01T01:43:52.865Z,56.27
2018-05-01T01:44:52.841Z,55.60
2018-05-01T01:45:52.815Z,56.36
2018-05-01T01:46:52.784Z,56.27
2018-05-01T01:47:52.751Z,56.27
2018-05-01T01:48:52.731Z,57.31
2018-05-01T01:49:52.700Z,56.84
2018-05-01T01:50:52.670Z,57.21
2018-05-01T01:51:52.653Z,56.65
2018-05-01T01:52:52.619Z,56.55
2018-05-01T01:53:52.592Z,56.84
2018-05-01T01:54:52.566Z,56.65
2018-05-01T01:55:52.537Z,57.03
2018-05-01T01:56:52.506Z,57.03
2018-05-01T01:57:52.481Z,57.59
2018-05-01T01:58:52.463Z,57.40
2018-05-01T01:59:52.432Z,57.59
2018-05-01T02:00:52.408Z,56.65
2018-05-01T02:01:52.379Z,57.21
2018-05-01T02:02:52.346Z,58.26
2018-05-01T02:03:52.330Z,58.54
2018-05-01T02:04:52.298Z,57.69
2018-05-01T02:05:52.270Z,57.31
2018-05-01T02:06:52.242Z,58.45
2018-05-01T02:07:52.220Z,58.83
2018-05-01T02:08:52.198Z,58.07
2018-05-01T02:09:52.158Z,57.21
2018-05-01T02:10:52.138Z,57.50
2018-05-01T02:11:52.115Z,57.31
2018-05-01T02:12:52.081Z,57.59
2018-05-01T02:13:52.059Z,57.31
2018-05-01T02:14:52.028Z,57.50
2018-05-01T02:15:52.005Z,57.03
2018-05-01T02:16:51.975Z,56.46
2018-05-01T02:17:51.949Z,57.40
2018-05-01T02:18:51.921Z,57.40
2018-05-01T02:19:51.892Z,56.74
2018-05-01T02:20:51.864Z,56.55
2018-05-01T02:21:51.846Z,57.12
2018-05-01T02:22:51.808Z,56.36
2018-05-01T02:23:51.789Z,56.65
2018-05-01T02:24:51.753Z,56.84
2018-05-01T02:25:51.732Z,57.31
2018-05-01T02:26:51.698Z,57.21
2018-05-01T02:27:51.676Z,56.65
2018-05-01T02:28:51.650Z,56.93
2018-05-01T02:29:51.619Z,56.93
2018-05-01T02:30:51.603Z,56.17
2018-05-01T02:31:51.569Z,56.74
2018-05-01T02:32:51.547Z,56.46
2018-05-01T02:33:51.615Z,56.27
2018-05-01T02:34:51.485Z,56.36
2018-05-01T02:35:51.462Z,57.40
2018-05-01T02:36:51.438Z,57.98
2018-05-01T02:37:51.404Z,58.54
2018-05-01T02:38:51.376Z,58.45
2018-05-01T02:39:51.357Z,58.07
2018-05-01T02:40:51.327Z,57.21
2018-05-01T02:41:51.301Z,57.12
2018-05-01T02:42:51.266Z,57.79
2018-05-01T02:43:51.258Z,58.26
2018-05-01T02:44:51.225Z,57.79
2018-05-01T02:45:51.190Z,57.12
2018-05-01T02:46:51.168Z,57.59
2018-05-01T02:47:51.134Z,56.84
2018-05-01T02:48:51.109Z,56.55
2018-05-01T02:49:51.083Z,56.74
2018-05-01T02:50:51.052Z,56.27
2018-05-01T02:51:51.033Z,58.45
2018-05-01T02:52:51.008Z,57.79
2018-05-01T02:53:50.973Z,57.69
2018-05-01T02:54:50.947Z,57.21
2018-05-01T02:55:50.927Z,57.59
2018-05-01T02:56:50.898Z,58.07
2018-05-01T02:57:50.862Z,58.07
2018-05-01T02:58:50.839Z,57.69
2018-05-01T02:59:50.820Z,58.17
2018-05-01T03:00:50.789Z,57.79
2018-05-01T03:01:50.761Z,57.21
2018-05-01T03:02:50.734Z,57.69
2018-05-01T03:03:50.704Z,57.88
2018-05-01T03:04:50.684Z,57.31
2018-05-01T03:05:50.652Z,57.59
2018-05-01T03:06:50.623Z,58.83
2018-05-01T03:07:50.603Z,59.59
2018-05-01T03:08:50.578Z,59.30
2018-05-01T03:09:50.570Z,58.36
2018-05-01T03:10:50.519Z,57.88
2018-05-01T03:11:50.491Z,58.07
2018-05-01T03:12:50.466Z,57.98
2018-05-01T03:13:50.435Z,58.83
2018-05-01T03:14:50.406Z,59.68
2018-05-01T03:15:50.382Z,58.64
2018-05-01T03:16:50.352Z,58.73
2018-05-01T03:17:50.341Z,58.45
2018-05-01T03:18:50.307Z,58.07
2018-05-01T03:19:50.272Z,58.92
2018-05-01T03:20:50.254Z,58.92
2018-05-01T03:21:50.224Z,58.54
2018-05-01T03:22:50.190Z,58.73
2018-05-01T03:23:50.179Z,59.11
2018-05-01T03:24:50.137Z,58.83
2018-05-01T03:25:50.117Z,58.36
2018-05-01T03:26:50.091Z,58.45
2018-05-01T03:27:50.056Z,59.02
2018-05-01T03:28:50.031Z,57.98
2018-05-01T03:29:50.008Z,58.73
2018-05-01T03:30:49.984Z,58.92
2018-05-01T03:31:49.953Z,58.26
2018-05-01T03:32:49.931Z,57.69
2018-05-01T03:33:49.891Z,58.26
2018-05-01T03:34:49.867Z,58.73
2018-05-01T03:35:49.849Z,59.11
2018-05-01T03:36:49.812Z,58.45
2018-05-01T03:37:49.792Z,58.92
2018-05-01T03:38:49.767Z,59.02
2018-05-01T03:39:49.744Z,58.64
2018-05-01T03:40:49.713Z,57.69
2018-05-01T03:41:49.677Z,57.88
2018-05-01T03:42:49.653Z,57.79
2018-05-01T03:43:49.634Z,58.83
2018-05-01T03:44:49.597Z,59.21
2018-05-01T03:45:49.580Z,59.11
2018-05-01T03:46:49.548Z,58.64
2018-05-01T03:47:49.518Z,57.79
2018-05-01T03:48:49.495Z,58.07
2018-05-01T03:49:49.464Z,58.64
2018-05-01T03:50:49.438Z,59.59
2018-05-01T03:51:49.413Z,59.59
2018-05-01T03:52:49.381Z,59.68
2018-05-01T03:53:49.362Z,59.49
2018-05-01T03:54:49.332Z,59.59
2018-05-01T03:55:49.396Z,58.83
2018-05-01T03:56:49.277Z,59.30
2018-05-01T03:57:49.251Z,58.92
2018-05-01T03:58:49.236Z,59.11
2018-05-01T03:59:49.197Z,59.40
2018-05-01T04:00:49.169Z,59.68
2018-05-01T04:01:49.144Z,60.53
2018-05-01T04:02:49.122Z,59.59
2018-05-01T04:03:49.086Z,59.40
2018-05-01T04:04:49.066Z,59.40
2018-05-01T04:05:49.032Z,59.97
2018-05-01T04:06:49.006Z,59.78
2018-05-01T04:07:48.986Z,59.88
2018-05-01T04:08:48.956Z,59.49
2018-05-01T04:09:48.931Z,59.11
2018-05-01T04:10:48.897Z,59.40
2018-05-01T04:11:48.875Z,60.06
2018-05-01T04:12:48.849Z,60.06
2018-05-01T04:13:48.813Z,61.30
2018-05-01T04:14:48.795Z,59.78
2018-05-01T04:15:48.762Z,59.49
2018-05-01T04:16:48.734Z,59.59
2018-05-01T04:17:48.715Z,59.68
2018-05-01T04:18:48.676Z,60.16
2018-05-01T04:19:48.654Z,59.49
2018-05-01T04:20:48.631Z,59.40
2018-05-01T04:21:48.601Z,59.78
2018-05-01T04:22:48.579Z,59.88
2018-05-01T04:23:48.546Z,59.88
2018-05-01T04:24:48.522Z,60.35
2018-05-01T04:25:48.490Z,59.68
2018-05-01T04:26:48.463Z,59.68
2018-05-01T04:27:48.444Z,59.68
2018-05-01T04:28:48.410Z,59.49
2018-05-01T04:29:48.389Z,59.30
2018-05-01T04:30:48.364Z,59.97
2018-05-01T04:31:48.333Z,59.40
2018-05-01T04:32:48.312Z,60.44
2018-05-01T04:33:48.279Z,60.06
2018-05-01T04:34:48.251Z,59.78
2018-05-01T04:35:48.221Z,59.30
2018-05-01T04:36:48.198Z,60.06
2018-05-01T04:37:48.172Z,60.63
2018-05-01T04:38:48.145Z,59.68
2018-05-01T04:39:48.115Z,60.06
2018-05-01T04:40:48.092Z,61.01
2018-05-01T04:41:48.076Z,60.44
2018-05-01T04:42:48.034Z,60.63
2018-05-01T04:43:48.008Z,61.30
2018-05-01T04:44:47.991Z,60.92
2018-05-01T04:45:47.949Z,61.20
2018-05-01T04:46:47.938Z,61.20
2018-05-01T04:47:47.906Z,61.30
2018-05-01T04:48:47.875Z,61.30
2018-05-01T04:49:47.843Z,60.35
2018-05-01T04:50:47.815Z,60.35
2018-05-01T04:51:47.876Z,60.73
2018-05-01T04:52:47.764Z,61.68
2018-05-01T04:53:47.739Z,61.87
2018-05-01T04:54:47.711Z,61.96
2018-05-01T04:55:47.681Z,61.20
2018-05-01T04:56:47.662Z,61.30
2018-05-01T04:57:47.632Z,61.58
2018-05-01T04:58:47.598Z,61.39
2018-05-01T04:59:47.582Z,62.43
2018-05-01T05:00:47.547Z,62.62
2018-05-01T05:01:47.528Z,62.43
2018-05-01T05:02:47.494Z,62.82
2018-05-01T05:03:47.472Z,62.91
2018-05-01T05:04:47.442Z,63.29
2018-05-01T05:05:47.417Z,61.68
2018-05-01T05:06:47.395Z,61.14
2018-05-01T05:07:47.360Z,60.73
2018-05-01T05:08:47.339Z,62.62
2018-05-01T05:09:47.309Z,62.85
2018-05-01T05:10:47.282Z,62.75
2018-05-01T05:11:47.275Z,63.60
2018-05-01T05:12:47.872Z,62.34
2018-05-01T05:13:47.199Z,61.77
2018-05-01T05:14:47.175Z,61.87
2018-05-01T05:15:47.145Z,62.62
2018-05-01T05:16:47.117Z,62.53
2018-05-01T05:17:47.092Z,63.48
2018-05-01T05:18:47.070Z,62.91
2018-05-01T05:19:47.062Z,62.91
2018-05-01T05:20:47.006Z,62.53
2018-05-01T05:21:46.986Z,63.01
2018-05-01T05:22:46.952Z,64.14
2018-05-01T05:23:46.928Z,64.52
2018-05-01T05:24:46.898Z,63.29
2018-05-01T05:25:46.879Z,63.57
2018-05-01T05:26:46.854Z,62.34
2018-05-01T05:27:46.818Z,63.48
2018-05-01T05:28:46.798Z,61.52
2018-05-01T05:29:46.770Z,62.85
2018-05-01T05:30:46.744Z,62.91
2018-05-01T05:31:46.711Z,63.76
2018-05-01T05:32:46.689Z,64.33
2018-05-01T05:33:46.658Z,63.32
2018-05-01T05:34:46.632Z,63.76
2018-05-01T05:35:46.606Z,64.46
2018-05-01T05:36:46.586Z,65.03
2018-05-01T05:37:46.548Z,64.65
2018-05-01T05:38:46.522Z,65.60
2018-05-01T05:39:46.500Z,64.84
2018-05-01T05:40:46.472Z,65.03
2018-05-01T05:41:46.447Z,64.84
2018-05-01T05:42:46.429Z,64.75
2018-05-01T05:43:46.394Z,64.46
2018-05-01T05:44:46.366Z,66.74
2018-05-01T05:45:46.344Z,65.50
2018-05-01T05:46:46.313Z,64.46
2018-05-01T05:47:46.280Z,66.55
2018-05-01T05:48:46.484Z,65.88
2018-05-01T05:49:46.223Z,64.84
2018-05-01T05:50:46.200Z,64.65
2018-05-01T05:51:46.179Z,63.70
2018-05-01T05:52:46.144Z,66.17
2018-05-01T05:53:46.132Z,66.27
2018-05-01T05:54:46.097Z,65.98
2018-05-01T05:55:46.070Z,68.16
2018-05-01T05:56:46.042Z,67.50
2018-05-01T05:57:46.018Z,66.93
2018-05-01T05:58:45.983Z,67.12
2018-05-01T05:59:45.999Z,70.63
2018-05-01T06:00:45.936Z,71.11
2018-05-01T06:01:45.904Z,69.87
2018-05-01T06:02:45.880Z,68.26
2018-05-01T06:03:45.851Z,69.30
2018-05-01T06:04:45.821Z,71.58
2018-05-01T06:05:45.800Z,72.15
2018-05-01T06:06:45.769Z,73.96
2018-05-01T06:07:45.822Z,73.86
2018-05-01T06:08:45.721Z,74.71
2018-05-01T06:09:45.688Z,75.00
2018-05-01T06:10:45.667Z,72.91
2018-05-01T06:11:45.637Z,76.42
2018-05-01T06:12:45.609Z,75.85
2018-05-01T06:13:45.623Z,76.61
2018-05-01T06:14:45.550Z,76.23
2018-05-01T06:15:45.534Z,73.86
2018-05-01T06:16:45.506Z,72.91
2018-05-01T06:17:45.480Z,71.01
2018-05-01T06:18:45.453Z,74.33
2018-05-01T06:19:45.420Z,74.33
2018-05-01T06:20:45.394Z,74.52
2018-05-01T06:21:45.376Z,74.43
2018-05-01T06:22:45.338Z,77.37
2018-05-01T06:23:45.326Z,75.19
2018-05-01T06:24:45.288Z,75.47
2018-05-01T06:25:45.260Z,75.67
2018-05-01T06:26:45.234Z,74.43
2018-05-01T06:27:45.211Z,76.23
2018-05-01T06:28:45.174Z,75.09
2018-05-01T06:29:45.155Z,74.15
2018-05-01T06:30:45.124Z,72.44
2018-05-01T06:31:45.100Z,75.57
2018-05-01T06:32:45.076Z,75.09
2018-05-01T06:33:45.044Z,74.05
2018-05-01T06:34:45.024Z,74.52
2018-05-01T06:35:44.988Z,74.43
2018-05-01T06:36:44.965Z,73.00
2018-05-01T06:37:44.934Z,73.10
2018-05-01T06:38:44.909Z,73.86
2018-05-01T06:39:44.886Z,75.85
2018-05-01T06:40:44.900Z,75.95
2018-05-01T06:41:44.830Z,74.71
2018-05-01T06:42:44.806Z,74.62
2018-05-01T06:43:44.776Z,75.47
2018-05-01T06:44:44.752Z,75.47
2018-05-01T06:45:44.720Z,75.57
2018-05-01T06:46:44.710Z,74.33
2018-05-01T06:47:44.676Z,75.57
2018-05-01T06:48:44.651Z,76.42
2018-05-01T06:49:44.611Z,76.23
2018-05-01T06:50:44.614Z,77.66
2018-05-01T06:51:44.564Z,76.71
2018-05-01T06:52:44.538Z,75.00
2018-05-01T06:53:44.510Z,75.00
2018-05-01T06:54:44.490Z,75.28
2018-05-01T06:55:44.454Z,79.17
2018-05-01T06:56:44.429Z,78.74
2018-05-01T06:57:44.461Z,77.18
2018-05-01T06:58:44.368Z,79.17
2018-05-01T06:59:44.346Z,78.70
2018-05-01T07:00:44.322Z,76.75
2018-05-01T07:01:44.289Z,79.03
2018-05-01T07:02:44.266Z,79.03
2018-05-01T07:03:44.235Z,80.07
2018-05-01T07:04:44.210Z,76.84
2018-05-01T07:05:44.188Z,78.17
2018-05-01T07:06:44.161Z,78.74
2018-05-01T07:07:44.136Z,79.79
2018-05-01T07:08:44.104Z,78.17
2018-05-01T07:09:44.072Z,79.97
2018-05-01T07:10:44.053Z,80.55
2018-05-01T07:11:44.027Z,80.16
2018-05-01T07:12:43.990Z,79.41
2018-05-01T07:13:43.975Z,78.27
2018-05-01T07:14:43.940Z,79.97
2018-05-01T07:15:43.931Z,82.26
2018-05-01T07:16:43.887Z,81.87
2018-05-01T07:17:43.870Z,82.26
2018-05-01T07:18:43.840Z,79.97
2018-05-01T07:19:43.806Z,80.93
2018-05-01T07:20:43.789Z,80.93
2018-05-01T07:21:43.751Z,81.02
2018-05-01T07:22:43.730Z,82.07
2018-05-01T07:23:43.700Z,80.93
2018-05-01T07:24:43.678Z,81.59
2018-05-01T07:25:43.646Z,80.49
2018-05-01T07:26:43.620Z,78.21
2018-05-01T07:27:43.596Z,79.35
2018-05-01T07:28:43.566Z,82.58
2018-05-01T07:29:43.546Z,81.73
2018-05-01T07:30:43.519Z,82.77
2018-05-01T07:31:43.483Z,84.01
2018-05-01T07:32:43.472Z,82.58
2018-05-01T07:33:43.428Z,84.86
2018-05-01T07:34:43.404Z,84.67
2018-05-01T07:35:43.385Z,86.47
2018-05-01T07:36:43.353Z,84.39
2018-05-01T07:37:43.334Z,86.19
2018-05-01T07:38:43.306Z,84.39
2018-05-01T07:39:43.269Z,84.24
2018-05-01T07:40:43.252Z,87.47
2018-05-01T07:41:43.275Z,85.95
2018-05-01T07:42:43.192Z,85.66
2018-05-01T07:43:43.172Z,86.80
2018-05-01T07:44:43.139Z,85.86
2018-05-01T07:45:43.118Z,84.81
2018-05-01T07:46:43.091Z,87.47
2018-05-01T07:47:43.061Z,86.05
2018-05-01T07:48:43.037Z,86.52
2018-05-01T07:49:43.010Z,86.14
2018-05-01T07:50:42.981Z,86.52
2018-05-01T07:51:42.957Z,84.62
2018-05-01T07:52:42.929Z,85.00
2018-05-01T07:53:42.903Z,86.24
2018-05-01T07:54:42.871Z,85.66
2018-05-01T07:55:42.855Z,86.33
2018-05-01T07:56:42.822Z,84.81
2018-05-01T07:57:42.793Z,84.85
2018-05-01T07:58:42.775Z,86.18
2018-05-01T07:59:42.745Z,85.99
2018-05-01T08:00:42.720Z,84.95
2018-05-01T08:01:42.686Z,84.85
2018-05-01T08:02:42.665Z,85.52
2018-05-01T08:03:42.639Z,84.85
2018-05-01T08:04:42.617Z,84.95
2018-05-01T08:05:42.579Z,84.56
2018-05-01T08:06:42.556Z,83.90
2018-05-01T08:07:42.528Z,83.52
2018-05-01T08:08:42.549Z,83.90
2018-05-01T08:09:42.481Z,84.05
2018-05-01T08:10:42.460Z,83.04
2018-05-01T08:11:42.419Z,83.00
2018-05-01T08:12:42.401Z,83.33
2018-05-01T08:13:42.373Z,83.42
2018-05-01T08:14:42.340Z,82.95
2018-05-01T08:15:42.315Z,81.71
2018-05-01T08:16:42.288Z,81.43
2018-05-01T08:17:42.268Z,81.43
2018-05-01T08:18:42.276Z,81.90
2018-05-01T08:19:42.215Z,81.33
2018-05-01T08:20:42.182Z,80.76
2018-05-01T08:21:42.164Z,80.19
2018-05-01T08:22:42.193Z,81.18
2018-05-01T08:23:42.123Z,79.57
2018-05-01T08:24:42.174Z,81.09
2018-05-01T08:25:42.047Z,80.23
2018-05-01T08:26:42.026Z,79.19
2018-05-01T08:27:42.049Z,80.80
2018-05-01T08:28:41.975Z,79.47
2018-05-01T08:29:41.944Z,79.94
2018-05-01T08:30:41.929Z,79.32
2018-05-01T08:31:41.899Z,77.09
2018-05-01T08:32:41.876Z,76.61
2018-05-01T08:33:41.837Z,75.09
2018-05-01T08:34:41.821Z,78.08
2018-05-01T08:35:41.786Z,78.85
2018-05-01T08:36:41.767Z,76.94
2018-05-01T08:37:41.787Z,72.94
2018-05-01T08:38:41.704Z,73.89
2018-05-01T08:39:41.686Z,74.84
2018-05-01T08:40:41.654Z,72.27
2018-05-01T08:41:41.632Z,71.51
2018-05-01T08:42:41.605Z,67.76
2018-05-01T08:43:41.572Z,70.05
2018-05-01T08:44:41.547Z,70.08
2018-05-01T08:45:41.525Z,72.94
2018-05-01T08:46:41.498Z,72.08
2018-05-01T08:47:41.470Z,73.61
2018-05-01T08:48:41.442Z,68.27
2018-05-01T08:49:41.422Z,67.32
2018-05-01T08:50:41.397Z,64.28
2018-05-01T08:51:41.366Z,66.66
2018-05-01T08:52:41.342Z,65.29
2018-05-01T08:53:41.311Z,66.08
2018-05-01T08:54:41.285Z,67.22
2018-05-01T08:55:41.260Z,67.61
2018-05-01T08:56:41.230Z,69.51
2018-05-01T08:57:41.209Z,67.89
2018-05-01T08:58:41.176Z,66.94
2018-05-01T08:59:41.158Z,66.75
2018-05-01T09:00:41.124Z,67.41
2018-05-01T09:01:41.098Z,66.02
2018-05-01T09:02:41.072Z,66.18
2018-05-01T09:03:41.096Z,65.99
2018-05-01T09:04:41.022Z,64.37
2018-05-01T09:05:41.013Z,65.07
2018-05-01T09:06:40.973Z,64.78
2018-05-01T09:07:41.559Z,65.07
2018-05-01T09:08:40.917Z,68.12
2018-05-01T09:09:40.889Z,67.35
2018-05-01T09:10:40.860Z,66.21
2018-05-01T09:11:40.841Z,64.21
2018-05-01T09:12:40.813Z,63.73
2018-05-01T09:13:40.785Z,62.97
2018-05-01T09:14:40.761Z,61.45
2018-05-01T09:15:40.744Z,61.83
2018-05-01T09:16:40.711Z,61.25
2018-05-01T09:17:40.712Z,62.21
2018-05-01T09:18:40.648Z,61.64
2018-05-01T09:19:40.626Z,61.16
2018-05-01T09:20:40.604Z,62.37
2018-05-01T09:21:40.572Z,62.18
2018-05-01T09:22:40.552Z,61.22
2018-05-01T09:23:40.519Z,62.18
2018-05-01T09:24:40.501Z,62.08
2018-05-01T09:25:40.548Z,61.64
2018-05-01T09:26:40.441Z,61.70
2018-05-01T09:27:40.416Z,60.27
2018-05-01T09:28:40.388Z,60.94
2018-05-01T09:29:40.376Z,61.61
2018-05-01T09:30:40.333Z,61.13
2018-05-01T09:31:40.316Z,61.32
2018-05-01T09:32:40.287Z,61.42
2018-05-01T09:33:40.256Z,62.08
2018-05-01T09:34:40.233Z,61.83
2018-05-01T09:35:40.207Z,61.64
2018-05-01T09:36:40.178Z,61.73
2018-05-01T09:37:40.149Z,61.16
2018-05-01T09:38:40.130Z,60.30
2018-05-01T09:39:40.101Z,57.64
2018-05-01T09:40:40.077Z,59.64
2018-05-01T09:41:40.048Z,59.74
2018-05-01T09:42:40.020Z,57.54
2018-05-01T09:43:39.999Z,58.21
2018-05-01T09:44:39.986Z,58.59
2018-05-01T09:45:39.972Z,57.54
2018-05-01T09:46:39.915Z,57.45
2018-05-01T09:47:39.938Z,56.97
2018-05-01T09:48:39.865Z,57.16
2018-05-01T09:49:39.841Z,58.62
2018-05-01T09:50:39.806Z,58.62
2018-05-01T09:51:39.783Z,56.24
2018-05-01T09:52:39.760Z,56.62
2018-05-01T09:53:39.741Z,57.57
2018-05-01T09:54:39.708Z,58.43
2018-05-01T09:55:39.680Z,55.76
2018-05-01T09:56:39.668Z,55.95
2018-05-01T09:57:39.644Z,55.00
2018-05-01T09:58:39.601Z,54.90
2018-05-01T09:59:39.578Z,56.14
2018-05-01T10:00:39.554Z,55.95
2018-05-01T10:01:39.546Z,55.95
2018-05-01T10:02:39.499Z,55.95
2018-05-01T10:03:39.472Z,55.00
2018-05-01T10:04:39.443Z,55.95
2018-05-01T10:05:39.417Z,55.57
2018-05-01T10:06:39.401Z,55.09
2018-05-01T10:07:39.370Z,56.14
2018-05-01T10:08:39.350Z,55.57
2018-05-01T10:09:39.310Z,55.57
2018-05-01T10:10:39.294Z,55.47
2018-05-01T10:11:39.262Z,54.52
2018-05-01T10:12:39.237Z,54.43
2018-05-01T10:13:39.247Z,54.43
2018-05-01T10:14:39.181Z,54.80
2018-05-01T10:15:39.165Z,54.52
2018-05-01T10:16:39.308Z,53.66
2018-05-01T10:17:39.185Z,54.61
2018-05-01T10:18:39.088Z,54.24
2018-05-01T10:19:39.105Z,54.61
2018-05-01T10:20:39.130Z,53.95
2018-05-01T10:21:39.522Z,54.61
2018-05-01T10:22:38.979Z,54.14
2018-05-01T10:23:39.437Z,54.04
2018-05-01T10:24:39.084Z,54.71
2018-05-01T10:25:39.456Z,54.80
2018-05-01T10:26:38.875Z,56.71
2018-05-01T10:27:38.847Z,55.31
2018-05-01T10:28:38.851Z,55.98
2018-05-01T10:29:38.795Z,55.31
2018-05-01T10:30:38.768Z,55.12
2018-05-01T10:31:38.744Z,53.78
2018-05-01T10:32:38.720Z,52.64
2018-05-01T10:33:38.693Z,53.88
2018-05-01T10:34:38.666Z,54.74
2018-05-01T10:35:38.660Z,53.78
2018-05-01T10:36:38.610Z,53.21
2018-05-01T10:37:38.584Z,51.88
2018-05-01T10:38:38.594Z,52.07
2018-05-01T10:39:38.533Z,52.26
2018-05-01T10:40:38.513Z,51.78
2018-05-01T10:41:38.561Z,51.02
2018-05-01T10:42:38.461Z,53.21
2018-05-01T10:43:38.429Z,51.68
2018-05-01T10:44:38.416Z,52.36
2018-05-01T10:45:38.378Z,53.02
2018-05-01T10:46:38.348Z,53.12
2018-05-01T10:47:38.332Z,53.21
2018-05-01T10:48:38.336Z,53.50
2018-05-01T10:49:38.294Z,53.88
2018-05-01T10:50:38.251Z,52.07
2018-05-01T10:51:38.230Z,51.97
2018-05-01T10:52:38.213Z,52.64
2018-05-01T10:53:38.177Z,52.55
2018-05-01T10:54:38.237Z,53.21
2018-05-01T10:55:38.128Z,52.45
2018-05-01T10:56:38.109Z,53.02
2018-05-01T10:57:38.075Z,54.10
2018-05-01T10:58:38.049Z,52.86
2018-05-01T10:59:38.016Z,52.76
2018-05-01T11:00:38.037Z,52.67
2018-05-01T11:01:37.969Z,51.43
2018-05-01T11:02:37.938Z,52.28
2018-05-01T11:03:37.914Z,51.62
2018-05-01T11:04:37.892Z,51.71
2018-05-01T11:05:37.858Z,52.45
2018-05-01T11:06:37.842Z,53.12
2018-05-01T11:07:37.807Z,52.26
2018-05-01T11:08:37.791Z,51.02
2018-05-01T11:09:37.753Z,51.12
2018-05-01T11:10:37.733Z,52.19
2018-05-01T11:11:37.704Z,52.48
2018-05-01T11:12:37.681Z,52.67
2018-05-01T11:13:37.665Z,52.00
2018-05-01T11:14:37.635Z,52.28
2018-05-01T11:15:37.610Z,53.72
2018-05-01T11:16:37.582Z,53.14
2018-05-01T11:17:37.549Z,52.86
2018-05-01T11:18:37.524Z,52.00
2018-05-01T11:19:37.500Z,51.81
2018-05-01T11:20:37.483Z,51.52
2018-05-01T11:21:37.448Z,52.00
2018-05-01T11:22:37.422Z,51.43
2018-05-01T11:23:37.394Z,51.43
2018-05-01T11:24:37.400Z,52.09
2018-05-01T11:25:37.348Z,52.19
2018-05-01T11:26:37.325Z,52.95
2018-05-01T11:27:37.289Z,51.71
2018-05-01T11:28:37.308Z,50.57
2018-05-01T11:29:37.245Z,49.62
2018-05-01T11:30:37.225Z,48.75
2018-05-01T11:31:37.186Z,49.52
2018-05-01T11:32:37.171Z,50.57
2018-05-01T11:33:37.208Z,50.85
2018-05-01T11:34:37.108Z,50.38
2018-05-01T11:35:37.091Z,50.47
2018-05-01T11:36:37.067Z,50.95
2018-05-01T11:37:37.040Z,51.23
2018-05-01T11:38:37.009Z,52.19
2018-05-01T11:39:37.014Z,51.71
2018-05-01T11:40:36.988Z,52.19
2018-05-01T11:41:36.952Z,53.05
2018-05-01T11:42:36.942Z,52.09
2018-05-01T11:43:36.931Z,52.28
2018-05-01T11:44:36.865Z,53.24
2018-05-01T11:45:36.827Z,52.76
2018-05-01T11:46:36.799Z,52.76
2018-05-01T11:47:36.781Z,54.19
2018-05-01T11:48:36.754Z,53.55
2018-05-01T11:49:36.727Z,52.69
2018-05-01T11:50:36.708Z,53.08
2018-05-01T11:51:36.674Z,52.79
2018-05-01T11:52:36.648Z,53.93
2018-05-01T11:53:36.624Z,53.74
2018-05-01T11:54:36.599Z,53.65
2018-05-01T11:55:36.570Z,54.70
2018-05-01T11:56:36.546Z,54.22
2018-05-01T11:57:36.519Z,53.84
2018-05-01T11:58:36.494Z,51.64
2018-05-01T11:59:36.475Z,51.83
2018-05-01T12:00:36.448Z,53.27
2018-05-01T12:01:36.417Z,52.03
2018-05-01T12:02:36.469Z,52.22
2018-05-01T12:03:36.368Z,51.35
2018-05-01T12:04:36.341Z,50.21
2018-05-01T12:05:36.320Z,49.93
2018-05-01T12:06:36.288Z,48.68
2018-05-01T12:07:36.262Z,48.21
2018-05-01T12:08:36.243Z,49.16
2018-05-01T12:09:36.213Z,48.78
2018-05-01T12:10:36.197Z,49.95
2018-05-01T12:11:36.165Z,50.24
2018-05-01T12:12:36.140Z,49.38
2018-05-01T12:13:36.109Z,48.80
2018-05-01T12:14:36.080Z,48.04
2018-05-01T12:15:36.063Z,48.61
2018-05-01T12:16:36.033Z,49.66
2018-05-01T12:17:36.011Z,51.79
2018-05-01T12:18:36.019Z,49.11
2018-05-01T12:19:35.958Z,48.23
2018-05-01T12:20:35.931Z,48.52
2018-05-01T12:21:35.903Z,49.02
2018-05-01T12:22:35.876Z,49.30
2018-05-01T12:23:35.937Z,48.83
2018-05-01T12:24:35.833Z,47.49
2018-05-01T12:25:35.805Z,47.68
2018-05-01T12:26:35.778Z,46.92
2018-05-01T12:27:35.752Z,47.08
2018-05-01T12:28:35.733Z,45.84
2018-05-01T12:29:35.701Z,44.79
2018-05-01T12:30:35.674Z,43.17
2018-05-01T12:31:35.651Z,43.93
2018-05-01T12:32:35.626Z,45.20
2018-05-01T12:33:35.604Z,44.81
2018-05-01T12:34:35.580Z,44.91
2018-05-01T12:35:35.542Z,45.39
2018-05-01T12:36:35.632Z,46.25
2018-05-01T12:37:35.496Z,45.96
2018-05-01T12:38:35.467Z,46.15
2018-05-01T12:39:35.451Z,45.10
2018-05-01T12:40:35.415Z,43.86
2018-05-01T12:41:35.399Z,43.95
2018-05-01T12:42:35.376Z,44.81
2018-05-01T12:43:35.341Z,43.59
2018-05-01T12:44:35.325Z,42.52
2018-05-01T12:45:35.286Z,43.57
2018-05-01T12:46:35.268Z,44.43
2018-05-01T12:47:35.246Z,44.91
2018-05-01T12:48:35.285Z,44.24
2018-05-01T12:49:35.190Z,44.62
2018-05-01T12:50:35.166Z,45.01
2018-05-01T12:51:35.141Z,44.53
2018-05-01T12:52:35.115Z,44.43